Time;durP1;ratioP1;P1;durP2;ratioP2;P2;SDS_P1;SDS_P2;PMS_P1;PMS_P2;Temp;Humidity;BMP_temperature;BMP_pressure;BME280_temperature;BME280_humidity;BME280_pressure;Samples;Min_cycle;Max_cycle;Signal;HPM_P1;HPM_P2
2022/03/21 00:01:05;;;;;;;28.60;19.97;;;8.10;99.90;;;;;;5019892;28;20187;-82
2022/03/21 00:03:31;;;;;;;32.83;20.97;;;8.10;99.90;;;;;;5017952;28;20164;-82
2022/03/21 00:05:58;;;;;;;32.00;18.63;;;8.10;99.90;;;;;;5019922;28;20195;-82
2022/03/21 00:08:24;;;;;;;30.07;20.77;;;8.10;99.90;;;;;;5019844;28;20203;-82
2022/03/21 00:10:52;;;;;;;30.77;19.97;;;8.10;99.90;;;;;;5019111;28;20180;-83
2022/03/21 00:13:18;;;;;;;30.47;20.27;;;8.10;99.90;;;;;;5019252;28;20182;-81
2022/03/21 00:15:44;;;;;;;32.50;20.90;;;8.10;99.90;;;;;;5018512;28;20184;-82
2022/03/21 00:18:13;;;;;;;31.47;20.93;;;8.10;99.90;;;;;;5018819;28;20203;-82
2022/03/21 00:20:42;;;;;;;32.13;20.20;;;8.10;99.90;;;;;;5018551;28;20642;-82
2022/03/21 00:23:09;;;;;;;30.13;20.23;;;8.10;99.90;;;;;;5018673;28;20179;-83
2022/03/21 00:25:34;;;;;;;28.80;20.23;;;8.10;99.90;;;;;;5018588;28;20261;-82
2022/03/21 00:28:00;;;;;;;33.43;20.07;;;8.00;99.90;;;;;;5018695;28;20200;-83
2022/03/21 00:30:27;;;;;;;30.37;20.83;;;8.00;99.90;;;;;;5019438;28;20227;-83
2022/03/21 00:32:53;;;;;;;27.90;19.73;;;8.00;99.90;;;;;;5018838;28;20544;-83
2022/03/21 00:35:20;;;;;;;29.47;19.70;;;8.00;99.90;;;;;;5019926;28;20188;-82
2022/03/21 00:37:46;;;;;;;31.70;18.57;;;7.90;99.90;;;;;;5021097;28;20226;-82
2022/03/21 00:40:14;;;;;;;30.07;18.80;;;7.90;99.90;;;;;;5020085;28;20215;-83
2022/03/21 00:42:41;;;;;;;26.60;18.37;;;7.90;99.90;;;;;;5020390;28;20554;-83
2022/03/21 00:45:12;;;;;;;31.00;19.53;;;7.90;99.90;;;;;;5021488;28;20175;-83
2022/03/21 00:47:39;;;;;;;26.53;19.37;;;7.90;99.90;;;;;;5020177;28;20581;-81
2022/03/21 00:50:11;;;;;;;27.97;18.57;;;7.90;99.90;;;;;;5018621;28;20271;-81
2022/03/21 00:52:52;;;;;;;31.27;19.30;;;8.00;99.90;;;;;;5019405;28;20229;-81
2022/03/21 00:55:19;;;;;;;26.57;18.23;;;7.90;99.90;;;;;;5018171;28;20183;-81
2022/03/21 00:57:45;;;;;;;28.10;19.37;;;7.90;99.90;;;;;;5020710;28;20235;-81
2022/03/21 01:00:16;;;;;;;30.43;20.43;;;7.90;99.90;;;;;;5022143;28;20279;-81
2022/03/21 01:02:42;;;;;;;31.77;21.33;;;7.90;99.90;;;;;;5021785;28;20168;-80
2022/03/21 01:05:09;;;;;;;32.50;21.90;;;7.90;99.90;;;;;;5019953;28;20318;-82
2022/03/21 01:07:36;;;;;;;31.83;21.27;;;7.90;99.90;;;;;;5017222;28;20269;-82
2022/03/21 01:10:04;;;;;;;33.40;19.83;;;7.90;99.90;;;;;;5016674;28;20573;-83
2022/03/21 01:12:31;;;;;;;29.93;20.10;;;7.90;99.90;;;;;;5015821;28;20183;-83
2022/03/21 01:14:56;;;;;;;30.87;19.90;;;7.90;99.90;;;;;;5017353;28;20179;-81
2022/03/21 01:17:22;;;;;;;29.07;18.97;;;7.90;99.90;;;;;;5016894;28;20226;-82
2022/03/21 01:19:48;;;;;;;27.27;19.43;;;7.90;99.90;;;;;;5017572;28;20208;-82
2022/03/21 01:22:14;;;;;;;32.17;20.43;;;7.90;99.90;;;;;;5017774;28;20180;-82
2022/03/21 01:24:40;;;;;;;27.50;19.37;;;7.80;99.90;;;;;;5018852;28;20227;-82
2022/03/21 01:27:07;;;;;;;33.20;21.37;;;7.80;99.90;;;;;;5018878;28;20199;-80
2022/03/21 01:29:33;;;;;;;31.10;19.33;;;7.80;99.90;;;;;;5022116;28;20183;-83
2022/03/21 01:31:59;;;;;;;35.17;21.07;;;7.80;99.90;;;;;;5021997;28;20194;-83
2022/03/21 01:34:25;;;;;;;29.57;21.23;;;7.70;99.90;;;;;;5019544;28;20188;-83
2022/03/21 01:36:51;;;;;;;33.00;21.93;;;7.70;99.90;;;;;;5019635;28;20204;-82
2022/03/21 01:39:16;;;;;;;34.57;21.80;;;7.70;99.90;;;;;;5019762;28;20207;-82
2022/03/21 01:41:42;;;;;;;33.40;21.63;;;7.70;99.90;;;;;;5022028;28;20179;-83
2022/03/21 01:44:09;;;;;;;35.27;21.57;;;7.70;99.90;;;;;;5020430;28;20182;-83
2022/03/21 01:46:37;;;;;;;34.57;22.33;;;7.60;99.90;;;;;;5020948;28;20200;-82
2022/03/21 01:49:05;;;;;;;30.50;20.37;;;7.60;99.90;;;;;;5021226;28;20183;-83
2022/03/21 01:51:31;;;;;;;32.77;21.60;;;7.60;99.90;;;;;;5020509;28;20184;-82
2022/03/21 01:56:45;;;;;;;31.80;21.47;;;7.70;99.90;;;;;;5023038;28;20349;-84
2022/03/21 01:59:11;;;;;;;33.07;20.77;;;7.70;99.90;;;;;;5020848;28;20269;-82
2022/03/21 02:01:38;;;;;;;28.70;20.33;;;7.70;99.90;;;;;;5021625;28;20275;-82
2022/03/21 02:04:05;;;;;;;27.23;20.07;;;7.70;99.90;;;;;;5021644;28;20184;-80
2022/03/21 02:06:31;;;;;;;31.97;20.53;;;7.70;99.90;;;;;;5021095;28;20230;-79
2022/03/21 02:08:58;;;;;;;29.90;19.90;;;7.70;99.90;;;;;;5020524;28;20187;-80
2022/03/21 02:11:28;;;;;;;27.30;18.83;;;7.70;99.90;;;;;;5020801;28;20187;-80
2022/03/21 02:13:56;;;;;;;30.97;20.33;;;7.70;99.90;;;;;;5020520;28;20271;-80
2022/03/21 02:16:23;;;;;;;27.50;19.20;;;7.70;99.90;;;;;;5020627;28;20190;-79
2022/03/21 02:18:49;;;;;;;36.63;20.87;;;7.70;99.90;;;;;;5023539;28;20207;-81
2022/03/21 02:21:27;;;;;;;30.97;20.13;;;7.70;99.90;;;;;;5018583;28;20265;-82
2022/03/21 02:24:02;;;;;;;30.73;20.47;;;7.60;99.90;;;;;;5018642;28;20170;-81
2022/03/21 02:26:29;;;;;;;29.13;20.10;;;7.60;99.90;;;;;;5019384;28;20648;-82
2022/03/21 02:28:57;;;;;;;35.77;20.13;;;7.60;99.90;;;;;;5019434;28;20178;-82
2022/03/21 02:31:24;;;;;;;28.63;19.83;;;7.60;99.90;;;;;;5019481;28;20183;-80
2022/03/21 02:33:52;;;;;;;29.43;20.23;;;7.60;99.90;;;;;;5019468;28;20180;-81
2022/03/21 02:36:21;;;;;;;27.30;20.03;;;7.60;99.90;;;;;;5019204;28;20179;-80
2022/03/21 02:38:47;;;;;;;33.40;21.87;;;7.60;99.90;;;;;;5018323;28;20281;-80
2022/03/21 02:41:16;;;;;;;31.00;20.13;;;7.60;99.90;;;;;;5019603;28;20202;-82
2022/03/21 02:43:56;;;;;;;30.43;21.43;;;7.60;99.90;;;;;;5019007;28;20176;-81
2022/03/21 02:46:22;;;;;;;28.43;20.70;;;7.60;99.90;;;;;;5020060;28;20176;-80
2022/03/21 02:48:49;;;;;;;34.27;23.13;;;7.60;99.90;;;;;;5018564;28;20180;-80
2022/03/21 02:51:17;;;;;;;34.17;23.07;;;7.50;99.90;;;;;;5018310;28;20176;-80
2022/03/21 02:53:45;;;;;;;33.47;23.50;;;7.50;99.90;;;;;;5019827;28;20218;-80
2022/03/21 02:56:11;;;;;;;35.87;24.27;;;7.50;99.90;;;;;;5019744;28;20592;-80
2022/03/21 02:58:37;;;;;;;33.40;23.10;;;7.50;99.90;;;;;;5016786;28;20258;-77
2022/03/21 03:01:09;;;;;;;35.43;23.83;;;7.50;99.90;;;;;;5015682;28;20262;-77
2022/03/21 03:03:35;;;;;;;33.27;23.43;;;7.50;99.90;;;;;;4999412;28;20642;-77
2022/03/21 03:06:02;;;;;;;34.93;22.80;;;7.50;99.90;;;;;;5016982;28;20242;-76
2022/03/21 03:08:28;;;;;;;36.63;24.13;;;7.50;99.90;;;;;;5015633;28;20179;-77
2022/03/21 03:10:54;;;;;;;40.40;24.83;;;7.50;99.90;;;;;;4999400;28;20187;-77
2022/03/21 03:13:20;;;;;;;35.30;22.67;;;7.40;99.90;;;;;;5015344;28;20180;-77
2022/03/21 03:15:47;;;;;;;36.20;23.83;;;7.40;99.90;;;;;;5015502;28;20306;-77
2022/03/21 03:18:13;;;;;;;35.80;21.43;;;7.40;99.90;;;;;;5017632;28;20195;-76
2022/03/21 03:20:47;;;;;;;34.93;23.03;;;7.30;99.90;;;;;;5015680;28;20788;-76
2022/03/21 03:23:14;;;;;;;33.47;22.20;;;7.30;99.90;;;;;;5016323;28;20557;-77
2022/03/21 03:25:40;;;;;;;33.23;21.97;;;7.20;99.90;;;;;;5015403;28;20180;-77
2022/03/21 03:28:05;;;;;;;37.73;22.77;;;7.10;99.90;;;;;;5015745;28;20207;-76
2022/03/21 03:30:33;;;;;;;32.67;21.80;;;7.10;99.90;;;;;;5018343;28;20549;-78
2022/03/21 03:32:58;;;;;;;30.60;21.87;;;7.00;99.90;;;;;;5014272;28;20257;-77
2022/03/21 03:35:24;;;;;;;34.57;22.13;;;6.90;99.90;;;;;;5014640;28;20183;-76
2022/03/21 03:37:50;;;;;;;32.77;21.87;;;6.80;99.90;;;;;;5014374;28;20670;-74
2022/03/21 03:40:17;;;;;;;32.03;22.73;;;6.80;99.90;;;;;;5014480;28;20207;-75
2022/03/21 03:42:43;;;;;;;35.43;22.23;;;6.70;99.90;;;;;;5015619;28;20171;-77
2022/03/21 03:45:09;;;;;;;32.80;23.27;;;6.70;99.90;;;;;;5015903;28;20681;-78
2022/03/21 03:47:35;;;;;;;30.73;22.60;;;6.60;99.90;;;;;;4998168;28;20208;-77
2022/03/21 03:50:01;;;;;;;37.87;22.17;;;6.50;99.90;;;;;;5013756;28;20188;-77
2022/03/21 03:52:26;;;;;;;38.40;24.03;;;6.50;99.90;;;;;;5014138;28;20356;-77
2022/03/21 03:54:52;;;;;;;38.77;23.90;;;6.50;99.90;;;;;;5014237;28;20223;-77
2022/03/21 03:57:20;;;;;;;35.33;23.90;;;6.40;99.90;;;;;;5014263;28;20670;-77
2022/03/21 03:59:46;;;;;;;35.17;22.77;;;6.40;99.90;;;;;;5014165;28;20218;-77
2022/03/21 04:02:12;;;;;;;37.03;23.63;;;6.30;99.90;;;;;;5015389;28;20255;-77
2022/03/21 04:04:37;;;;;;;40.40;23.87;;;6.30;99.90;;;;;;5013894;28;20227;-76
2022/03/21 04:07:03;;;;;;;38.30;23.00;;;6.20;99.90;;;;;;5014919;28;20712;-77
2022/03/21 04:09:29;;;;;;;35.97;23.93;;;6.10;99.90;;;;;;5013652;28;20187;-77
2022/03/21 04:11:55;;;;;;;38.40;24.60;;;6.00;99.90;;;;;;5021543;28;20208;-79
2022/03/21 04:14:20;;;;;;;35.80;23.70;;;6.00;99.90;;;;;;5024368;28;20172;-80
2022/03/21 04:16:46;;;;;;;35.90;23.93;;;5.90;99.90;;;;;;5024791;28;20205;-81
2022/03/21 04:19:13;;;;;;;33.97;24.33;;;5.80;99.90;;;;;;5022213;28;20212;-79
2022/03/21 04:21:39;;;;;;;36.83;23.77;;;5.80;99.90;;;;;;5023382;28;20200;-81
2022/03/21 04:24:05;;;;;;;36.97;23.70;;;5.70;99.90;;;;;;5021884;28;20276;-81
2022/03/21 04:26:31;;;;;;;34.37;24.47;;;5.70;99.90;;;;;;5022453;28;20204;-79
2022/03/21 04:28:57;;;;;;;31.43;22.20;;;5.70;99.90;;;;;;5023207;28;20239;-81
2022/03/21 04:31:23;;;;;;;33.47;22.40;;;5.70;99.90;;;;;;5022265;28;20642;-81
2022/03/21 04:33:49;;;;;;;35.07;22.73;;;5.70;99.90;;;;;;5022336;28;20198;-81
2022/03/21 04:36:15;;;;;;;37.47;23.87;;;5.60;99.90;;;;;;5023389;28;20180;-79
2022/03/21 04:38:41;;;;;;;37.13;24.27;;;5.60;99.90;;;;;;5022636;28;20272;-81
2022/03/21 04:41:07;;;;;;;39.80;24.13;;;5.60;99.90;;;;;;5018503;28;20274;-81
2022/03/21 04:43:33;;;;;;;35.87;24.43;;;5.50;99.90;;;;;;5018056;28;20263;-81
2022/03/21 04:46:00;;;;;;;37.83;25.57;;;5.50;99.90;;;;;;5019257;28;20210;-80
2022/03/21 04:48:25;;;;;;;36.30;23.40;;;5.40;99.90;;;;;;5018884;28;20571;-81
2022/03/21 04:50:51;;;;;;;37.87;25.17;;;5.40;99.90;;;;;;5019493;28;20186;-81
2022/03/21 04:53:17;;;;;;;38.33;24.07;;;5.50;99.90;;;;;;5018707;28;20190;-80
2022/03/21 04:55:43;;;;;;;38.23;23.67;;;5.40;99.90;;;;;;5016216;28;20556;-80
2022/03/21 04:58:10;;;;;;;36.70;24.07;;;5.40;99.90;;;;;;5016202;28;20207;-81
2022/03/21 05:00:36;;;;;;;38.87;24.17;;;5.40;99.90;;;;;;5018413;28;20211;-81
2022/03/21 05:03:07;;;;;;;37.17;24.07;;;5.40;99.90;;;;;;5022709;28;20212;-81
2022/03/21 05:05:36;;;;;;;37.80;23.27;;;5.30;99.90;;;;;;5023417;28;20198;-80
2022/03/21 05:08:03;;;;;;;40.87;23.43;;;5.20;99.90;;;;;;5022732;28;20207;-81
2022/03/21 05:10:30;;;;;;;37.57;23.50;;;5.00;99.90;;;;;;5023215;28;20192;-80
2022/03/21 05:12:57;;;;;;;35.03;23.30;;;4.90;99.90;;;;;;5023956;28;20180;-81
2022/03/21 05:15:26;;;;;;;40.20;23.87;;;4.80;99.90;;;;;;5023709;28;20190;-80
2022/03/21 05:17:52;;;;;;;37.00;23.60;;;4.70;99.90;;;;;;5024002;28;20203;-79
2022/03/21 05:20:18;;;;;;;32.93;23.00;;;4.70;99.90;;;;;;5023487;28;20588;-80
2022/03/21 05:30:57;;;;;;;34.57;22.73;;;4.70;99.90;;;;;;5023634;28;20238;-80
2022/03/21 05:31:01;;;;;;;36.40;22.93;;;4.60;99.90;;;;;;5025438;28;20252;-81
2022/03/21 05:36:11;;;;;;;36.67;23.90;;;4.50;99.90;;;;;;5020296;28;20222;-79
2022/03/21 05:38:37;;;;;;;36.93;24.63;;;4.50;99.90;;;;;;5018157;28;20200;-79
2022/03/21 05:41:03;;;;;;;35.00;24.70;;;4.50;99.90;;;;;;5016831;28;20612;-79
2022/03/21 05:43:32;;;;;;;36.40;24.50;;;4.50;99.90;;;;;;5018573;28;20172;-79
2022/03/21 05:46:00;;;;;;;36.83;23.87;;;4.50;99.90;;;;;;5015943;28;20179;-79
2022/03/21 05:51:11;;;;;;;35.83;24.33;;;4.50;99.90;;;;;;5018610;28;20166;-79
2022/03/21 05:53:38;;;;;;;36.93;24.90;;;4.60;99.90;;;;;;5018525;28;20650;-79
2022/03/21 05:56:06;;;;;;;42.77;25.77;;;4.50;99.90;;;;;;5017839;28;20180;-79
2022/03/21 05:58:32;;;;;;;40.17;25.57;;;4.50;99.90;;;;;;5018388;28;20207;-79
2022/03/21 06:00:58;;;;;;;40.53;25.73;;;4.50;99.90;;;;;;5017091;28;20179;-79
2022/03/21 06:03:26;;;;;;;36.10;24.53;;;4.50;99.90;;;;;;5017529;28;20179;-79
2022/03/21 06:05:55;;;;;;;35.03;24.23;;;4.60;99.90;;;;;;4978501;28;1146487;-81
2022/03/21 06:08:22;;;;;;;37.30;24.60;;;4.60;99.90;;;;;;5018731;28;20204;-79
2022/03/21 06:10:48;;;;;;;35.90;23.27;;;4.70;99.90;;;;;;5018990;28;20179;-80
2022/03/21 06:13:14;;;;;;;40.17;24.43;;;4.70;99.90;;;;;;5017735;28;20194;-80
2022/03/21 06:15:40;;;;;;;38.73;24.87;;;4.70;99.90;;;;;;5019199;28;20188;-81
2022/03/21 06:18:15;;;;;;;33.70;24.17;;;4.80;99.90;;;;;;5018505;28;20254;-78
2022/03/21 06:20:41;;;;;;;35.60;24.40;;;4.80;99.90;;;;;;5019421;28;20715;-78
2022/03/21 06:23:07;;;;;;;38.10;26.00;;;4.80;99.90;;;;;;5018228;28;20646;-78
2022/03/21 06:25:33;;;;;;;39.53;24.33;;;4.80;99.90;;;;;;5017396;28;20183;-78
2022/03/21 06:27:59;;;;;;;35.87;23.73;;;4.90;99.90;;;;;;5015904;28;20653;-77
2022/03/21 06:30:25;;;;;;;37.37;24.03;;;4.90;99.90;;;;;;5016668;28;20327;-77
2022/03/21 06:32:53;;;;;;;41.50;24.83;;;5.00;99.90;;;;;;5018153;28;20639;-77
2022/03/21 06:35:19;;;;;;;36.63;23.37;;;4.90;99.90;;;;;;5015831;28;20676;-77
2022/03/21 06:37:45;;;;;;;38.23;24.07;;;4.90;99.90;;;;;;5015688;28;20200;-78
2022/03/21 06:40:11;;;;;;;33.90;24.80;;;5.00;99.90;;;;;;5015842;28;20547;-78
2022/03/21 06:42:36;;;;;;;38.43;24.20;;;5.10;99.90;;;;;;5015701;28;20176;-79
2022/03/21 06:45:03;;;;;;;33.17;22.97;;;5.10;99.90;;;;;;5015614;28;20180;-78
2022/03/21 06:47:28;;;;;;;32.80;22.70;;;5.30;99.90;;;;;;5016493;28;20203;-78
2022/03/21 06:49:54;;;;;;;33.13;23.07;;;5.30;99.90;;;;;;5016856;28;20504;-78
2022/03/21 06:52:20;;;;;;;31.27;22.40;;;5.40;99.90;;;;;;5015837;28;20562;-78
2022/03/21 06:54:48;;;;;;;33.60;24.13;;;5.50;99.90;;;;;;5020344;28;20187;-78
2022/03/21 06:57:15;;;;;;;36.60;23.53;;;5.60;99.90;;;;;;5018602;28;20279;-77
2022/03/21 06:59:42;;;;;;;34.03;22.57;;;5.60;99.90;;;;;;5016055;28;20234;-77
2022/03/21 07:02:07;;;;;;;33.00;23.10;;;5.70;99.90;;;;;;5017391;28;20583;-77
2022/03/21 07:04:33;;;;;;;33.47;23.13;;;5.90;99.90;;;;;;4999301;28;20278;-77
2022/03/21 07:06:59;;;;;;;34.57;22.23;;;6.00;99.90;;;;;;5015220;28;20229;-77
2022/03/21 07:09:25;;;;;;;34.37;23.03;;;6.20;99.90;;;;;;5014802;28;20230;-77
2022/03/21 07:11:52;;;;;;;30.87;22.20;;;6.30;99.90;;;;;;5014843;28;20187;-78
2022/03/21 07:14:21;;;;;;;33.40;21.60;;;6.40;99.90;;;;;;5015306;28;20191;-78
2022/03/21 07:16:47;;;;;;;33.30;21.07;;;6.50;99.90;;;;;;5014862;28;20227;-78
2022/03/21 07:19:13;;;;;;;33.33;21.77;;;6.70;99.90;;;;;;5014668;28;20216;-79
2022/03/21 07:21:39;;;;;;;30.30;21.63;;;6.80;99.90;;;;;;5014414;28;20556;-77
2022/03/21 07:24:06;;;;;;;29.90;21.40;;;6.90;99.90;;;;;;5014933;28;20168;-77
2022/03/21 07:26:32;;;;;;;34.17;21.60;;;7.10;99.90;;;;;;5015491;28;20200;-77
2022/03/21 07:28:58;;;;;;;33.20;22.00;;;7.20;99.90;;;;;;5015512;28;20612;-78
2022/03/21 07:31:23;;;;;;;32.47;21.10;;;7.40;99.90;;;;;;5016255;28;20208;-78
2022/03/21 07:33:50;;;;;;;32.43;22.50;;;7.60;99.90;;;;;;5014507;28;20183;-78
2022/03/21 07:36:15;;;;;;;34.07;21.53;;;7.80;99.90;;;;;;5014959;28;20211;-79
2022/03/21 07:38:41;;;;;;;33.00;22.30;;;7.90;99.90;;;;;;5014812;28;20210;-79
2022/03/21 07:41:07;;;;;;;36.03;21.07;;;8.10;99.90;;;;;;5015857;28;20222;-79
2022/03/21 07:43:34;;;;;;;30.07;21.43;;;8.30;99.90;;;;;;5015655;28;20183;-78
2022/03/21 07:48:45;;;;;;;31.33;21.20;;;8.60;99.90;;;;;;5017803;28;20298;-80
2022/03/21 07:51:11;;;;;;;36.27;20.63;;;8.80;99.90;;;;;;5017325;28;20642;-76
2022/03/21 07:53:37;;;;;;;29.57;20.40;;;9.00;99.90;;;;;;5015325;28;20238;-76
2022/03/21 07:56:03;;;;;;;28.10;19.63;;;9.20;99.90;;;;;;5014060;28;20187;-76
2022/03/21 07:58:31;;;;;;;27.07;19.17;;;9.30;99.90;;;;;;5014959;28;20204;-77
2022/03/21 08:00:59;;;;;;;28.40;19.30;;;9.50;99.90;;;;;;5015265;28;20615;-77
2022/03/21 08:03:25;;;;;;;28.37;18.57;;;9.60;99.90;;;;;;5014732;28;20172;-77
2022/03/21 08:05:52;;;;;;;27.67;18.30;;;9.70;99.90;;;;;;5014951;28;20219;-77
2022/03/21 08:08:19;;;;;;;28.40;18.40;;;9.90;99.90;;;;;;5015133;28;20673;-77
2022/03/21 08:10:46;;;;;;;27.27;19.13;;;10.10;99.90;;;;;;5013708;28;20195;-77
2022/03/21 08:13:16;;;;;;;24.10;16.67;;;10.30;99.90;;;;;;5014918;28;20652;-77
2022/03/21 08:15:45;;;;;;;26.70;19.07;;;10.40;99.90;;;;;;5016082;28;20168;-77
2022/03/21 08:18:13;;;;;;;25.03;18.00;;;10.60;99.90;;;;;;5017928;28;20685;-77
2022/03/21 08:20:43;;;;;;;29.53;17.53;;;10.90;99.90;;;;;;5015207;28;20269;-77
2022/03/21 08:23:11;;;;;;;26.30;18.73;;;11.10;99.90;;;;;;5016462;28;20259;-77
2022/03/21 08:25:39;;;;;;;25.33;17.13;;;11.60;99.90;;;;;;5015483;28;20180;-76
2022/03/21 08:28:06;;;;;;;22.95;16.58;;;12.70;99.90;;;;;;5000584;28;20196;-78
2022/03/21 08:30:34;;;;;;;21.38;15.75;;;14.20;99.90;;;;;;5015873;28;20677;-78
2022/03/21 08:33:01;;;;;;;23.33;15.80;;;15.70;99.90;;;;;;5014757;28;20649;-77
2022/03/21 08:35:27;;;;;;;20.92;15.45;;;16.90;99.90;;;;;;5014947;28;20171;-77
2022/03/21 08:37:52;;;;;;;23.15;15.65;;;18.00;99.90;;;;;;5013587;28;20206;-77
2022/03/21 08:40:18;;;;;;;21.98;15.27;;;18.50;99.90;;;;;;5014824;28;20289;-77
2022/03/21 08:42:44;;;;;;;22.58;15.40;;;18.30;99.90;;;;;;5014714;28;20172;-77
2022/03/21 08:45:10;;;;;;;20.08;14.60;;;18.00;99.90;;;;;;5014693;28;20198;-77
2022/03/21 08:47:37;;;;;;;22.00;15.43;;;17.80;99.90;;;;;;5013311;28;20200;-77
2022/03/21 08:50:04;;;;;;;21.48;14.10;;;17.80;99.90;;;;;;5013143;28;20176;-77
2022/03/21 08:52:30;;;;;;;20.35;14.60;;;18.20;99.90;;;;;;4996814;28;20314;-77
2022/03/21 08:54:56;;;;;;;20.45;14.80;;;18.20;99.90;;;;;;5012971;28;20572;-77
2022/03/21 08:57:22;;;;;;;19.85;15.02;;;18.90;99.90;;;;;;5013201;28;20263;-77
2022/03/21 08:59:48;;;;;;;17.70;14.63;;;19.20;99.90;;;;;;5014345;28;20219;-77
2022/03/21 09:02:17;;;;;;;18.75;13.95;;;19.60;99.90;;;;;;5014508;28;20168;-77
2022/03/21 09:04:42;;;;;;;17.00;13.50;;;19.90;99.90;;;;;;4996988;28;20575;-77
2022/03/21 09:07:08;;;;;;;18.23;14.05;;;20.10;99.90;;;;;;5013060;28;20222;-77
2022/03/21 09:09:34;;;;;;;17.48;13.73;;;20.20;99.90;;;;;;5013141;28;20183;-77
2022/03/21 09:12:00;;;;;;;18.67;14.05;;;20.20;99.90;;;;;;5014345;28;20613;-77
2022/03/21 09:14:26;;;;;;;19.55;13.73;;;19.60;99.90;;;;;;5013256;28;20275;-77
2022/03/21 09:16:53;;;;;;;17.27;13.18;;;19.40;99.90;;;;;;5014322;28;20223;-77
2022/03/21 09:19:19;;;;;;;20.52;14.18;;;19.30;99.90;;;;;;5014793;28;20219;-77
2022/03/21 09:21:46;;;;;;;18.75;13.57;;;18.90;99.90;;;;;;5014416;28;20202;-77
2022/03/21 09:24:11;;;;;;;19.70;14.68;;;18.80;99.90;;;;;;5014317;28;20226;-77
2022/03/21 09:26:37;;;;;;;18.58;13.38;;;18.70;99.90;;;;;;5014353;28;20196;-77
2022/03/21 09:29:04;;;;;;;24.13;14.80;;;18.20;99.90;;;;;;5014212;28;20229;-77
2022/03/21 09:31:31;;;;;;;19.55;13.85;;;17.80;99.90;;;;;;5014952;28;20180;-77
2022/03/21 09:33:57;;;;;;;19.85;13.73;;;17.70;99.90;;;;;;5012815;28;20180;-77
2022/03/21 09:36:23;;;;;;;18.30;14.05;;;17.60;99.90;;;;;;5013154;28;20190;-77
2022/03/21 09:38:49;;;;;;;19.55;14.23;;;17.20;99.90;;;;;;5012880;28;20290;-77
2022/03/21 09:41:22;;;;;;;19.02;13.38;;;17.10;99.90;;;;;;5012836;28;20639;-76
2022/03/21 09:43:52;;;;;;;19.88;13.02;;;16.90;99.90;;;;;;5013127;28;20168;-76
2022/03/21 09:46:18;;;;;;;18.40;14.00;;;16.70;99.90;;;;;;5015323;28;20160;-77
2022/03/21 09:48:52;;;;;;;21.73;14.60;;;16.70;99.90;;;;;;5016305;28;20179;-76
2022/03/21 09:51:27;;;;;;;18.45;14.25;;;16.70;99.90;;;;;;5017186;28;20202;-76
2022/03/21 09:53:54;;;;;;;20.88;13.82;;;16.50;99.90;;;;;;5016876;28;20167;-76
2022/03/21 09:56:21;;;;;;;20.60;13.60;;;16.50;99.90;;;;;;5018067;28;20175;-77
2022/03/21 09:58:47;;;;;;;21.70;14.40;;;16.50;99.90;;;;;;5016713;28;20207;-77
2022/03/21 10:01:15;;;;;;;17.88;13.60;;;16.70;99.90;;;;;;5017264;28;20186;-77
2022/03/21 10:03:42;;;;;;;17.25;13.15;;;16.70;99.90;;;;;;5017606;28;20172;-76
2022/03/21 10:06:32;;;;;;;19.02;13.35;;;16.50;99.90;;;;;;5018945;28;20199;-78
2022/03/21 10:09:15;;;;;;;19.33;13.75;;;16.60;99.90;;;;;;5018692;28;20156;-77
2022/03/21 10:11:57;;;;;;;21.83;13.73;;;16.50;99.90;;;;;;5019195;28;20630;-76
2022/03/21 10:14:26;;;;;;;18.98;13.25;;;16.60;99.90;;;;;;5017732;28;20179;-76
2022/03/21 10:16:53;;;;;;;20.27;13.68;;;16.20;99.90;;;;;;5017777;28;20627;-77
2022/03/21 10:19:19;;;;;;;18.73;13.85;;;16.30;99.90;;;;;;5018043;28;20199;-77
2022/03/21 10:22:05;;;;;;;21.83;13.80;;;16.40;99.90;;;;;;4999848;28;20183;-76
2022/03/21 10:24:36;;;;;;;20.20;13.18;;;16.50;99.90;;;;;;5017556;28;20168;-76
2022/03/21 10:27:02;;;;;;;19.63;13.73;;;16.50;99.90;;;;;;5015792;28;20219;-77
2022/03/21 10:29:27;;;;;;;23.58;14.45;;;16.50;99.90;;;;;;5017499;28;20563;-76
2022/03/21 10:31:53;;;;;;;22.20;13.95;;;16.50;99.90;;;;;;5017231;28;20168;-76
2022/03/21 10:34:22;;;;;;;21.73;14.38;;;16.40;99.90;;;;;;5016083;28;20233;-76
2022/03/21 10:37:08;;;;;;;24.55;14.43;;;16.50;99.90;;;;;;5015979;28;20222;-77
2022/03/21 10:39:36;;;;;;;21.52;13.45;;;16.50;99.90;;;;;;5015558;28;20250;-77
2022/03/21 10:42:04;;;;;;;20.65;13.70;;;16.70;99.90;;;;;;5016945;28;20176;-77
2022/03/21 10:44:32;;;;;;;19.83;13.73;;;16.70;99.90;;;;;;5016617;28;20646;-77
2022/03/21 10:47:00;;;;;;;22.50;14.73;;;16.90;99.90;;;;;;5016632;28;20674;-76
2022/03/21 10:49:30;;;;;;;19.95;13.30;;;16.90;99.90;;;;;;5016624;28;20168;-76
2022/03/21 10:51:56;;;;;;;19.08;13.43;;;16.70;99.90;;;;;;5016620;28;20175;-77
2022/03/21 10:54:40;;;;;;;20.73;14.07;;;16.80;99.90;;;;;;5016602;28;20180;-76
2022/03/21 10:57:27;;;;;;;20.73;13.63;;;17.00;99.90;;;;;;5016464;28;20200;-76
2022/03/21 11:00:15;;;;;;;20.15;13.07;;;16.80;99.90;;;;;;5015072;28;20687;-76
2022/03/21 11:02:51;;;;;;;21.90;13.68;;;17.20;99.90;;;;;;5015248;28;20179;-76
2022/03/21 11:05:18;;;;;;;19.75;13.60;;;17.40;99.90;;;;;;5016417;28;20600;-76
2022/03/21 11:07:46;;;;;;;20.50;13.70;;;17.40;99.90;;;;;;5016107;28;20678;-77
2022/03/21 11:10:12;;;;;;;21.48;13.50;;;17.50;99.90;;;;;;5015138;28;20184;-76
2022/03/21 11:12:39;;;;;;;18.00;13.60;;;17.70;99.90;;;;;;5016719;28;20646;-76
2022/03/21 11:15:07;;;;;;;19.13;13.75;;;18.00;99.90;;;;;;5016129;28;20184;-76
2022/03/21 11:17:33;;;;;;;21.77;13.43;;;17.90;99.90;;;;;;5014684;28;20200;-77
2022/03/21 11:20:02;;;;;;;18.15;13.02;;;18.00;99.90;;;;;;5014662;28;20667;-76
2022/03/21 11:22:29;;;;;;;18.30;13.18;;;18.30;99.90;;;;;;5014713;28;20258;-76
2022/03/21 11:25:05;;;;;;;19.42;13.30;;;18.50;99.90;;;;;;5016132;28;20172;-77
2022/03/21 11:28:04;;;;;;;22.58;13.13;;;18.40;99.90;;;;;;5016177;28;20540;-77
2022/03/21 11:30:54;;;;;;;25.23;14.73;;;18.70;99.90;;;;;;5016564;28;20172;-77
2022/03/21 11:33:39;;;;;;;23.25;13.57;;;18.40;99.90;;;;;;5015096;28;20669;-77
2022/03/21 11:36:10;;;;;;;20.10;14.50;;;18.30;99.90;;;;;;4999356;28;20183;-77
2022/03/21 11:38:41;;;;;;;19.00;13.15;;;18.50;99.90;;;;;;5015389;28;20234;-77
2022/03/21 11:41:21;;;;;;;17.02;11.60;;;18.80;99.90;;;;;;5015126;28;20218;-77
2022/03/21 11:44:14;;;;;;;23.15;14.70;;;19.20;99.90;;;;;;5015950;28;20504;-77
2022/03/21 11:46:47;;;;;;;22.83;13.55;;;19.60;99.90;;;;;;5016163;28;20736;-77
2022/03/21 11:49:22;;;;;;;16.77;13.35;;;20.10;99.90;;;;;;5014456;28;20176;-77
2022/03/21 11:51:58;;;;;;;20.13;13.43;;;20.00;99.90;;;;;;4998115;28;20649;-78
2022/03/21 11:54:34;;;;;;;20.95;12.52;;;20.10;99.90;;;;;;5014395;28;20195;-77
2022/03/21 11:57:08;;;;;;;18.10;12.80;;;20.30;99.90;;;;;;5016105;28;20196;-78
2022/03/21 11:59:34;;;;;;;19.83;12.70;;;20.00;99.90;;;;;;4997668;28;20697;-77
2022/03/21 12:02:01;;;;;;;18.23;12.10;;;19.50;99.90;;;;;;4997797;28;20188;-77
2022/03/21 12:04:29;;;;;;;19.42;13.35;;;19.40;99.90;;;;;;5014614;28;20187;-77
2022/03/21 12:07:18;;;;;;;16.17;11.85;;;19.40;99.90;;;;;;5014219;28;20215;-77
2022/03/21 12:09:52;;;;;;;20.40;12.70;;;19.50;99.90;;;;;;5004615;28;20188;-79
2022/03/21 12:12:25;;;;;;;17.05;11.65;;;19.30;99.90;;;;;;5015334;28;20172;-78
2022/03/21 12:14:55;;;;;;;17.98;11.10;;;19.50;99.90;;;;;;5014868;28;20179;-83
2022/03/21 12:17:26;;;;;;;18.23;10.40;;;19.60;99.90;;;;;;5015824;28;20222;-83
2022/03/21 12:19:57;;;;;;;15.23;10.35;;;19.80;99.90;;;;;;5014512;28;20278;-83
2022/03/21 12:22:37;;;;;;;14.40;9.35;;;20.10;99.90;;;;;;5016124;28;20156;-83
2022/03/21 12:25:27;;;;;;;15.10;10.20;;;20.20;99.90;;;;;;5000266;28;20164;-83
2022/03/21 12:27:58;;;;;;;18.92;9.02;;;20.40;99.90;;;;;;4999017;28;20568;-83
2022/03/21 12:30:30;;;;;;;14.27;9.02;;;20.40;99.90;;;;;;5000088;28;20168;-83
2022/03/21 12:32:58;;;;;;;14.27;9.93;;;20.40;99.90;;;;;;5000352;28;20654;-83
2022/03/21 12:35:45;;;;;;;15.77;9.30;;;20.00;99.90;;;;;;5017337;28;20175;-83
2022/03/21 12:38:36;;;;;;;14.60;8.80;;;20.20;99.90;;;;;;5000481;28;20200;-83
2022/03/21 12:41:05;;;;;;;14.68;9.68;;;20.40;99.90;;;;;;4994664;28;20198;-83
2022/03/21 12:43:40;;;;;;;14.75;9.85;;;20.30;99.90;;;;;;4998115;28;20175;-83
2022/03/21 12:46:06;;;;;;;15.60;9.25;;;20.30;99.90;;;;;;5016364;28;20168;-83
2022/03/21 12:48:34;;;;;;;18.25;9.93;;;20.30;99.90;;;;;;4998842;28;20666;-84
2022/03/21 12:51:05;;;;;;;12.05;8.52;;;20.60;99.90;;;;;;4998194;28;20194;-83
2022/03/21 12:53:45;;;;;;;11.85;7.80;;;20.90;99.90;;;;;;4999068;28;20526;-83
2022/03/21 12:56:17;;;;;;;12.38;8.02;;;21.40;99.90;;;;;;4998811;28;20163;-84